sensor_id;sensor_type;location;lat;lon;timestamp;P1;durP1;ratioP1;P2;durP2;ratioP2
25780;SDS011;13626;48.128;11.628;2023-01-04T00:02:07;6.47;;;4.82;;
25780;SDS011;13626;48.128;11.628;2023-01-04T00:04:35;5.85;;;4.38;;
25780;SDS011;13626;48.128;11.628;2023-01-04T00:07:02;8.02;;;5.47;;
25780;SDS011;13626;48.128;11.628;2023-01-04T00:09:29;6.53;;;4.70;;
25780;SDS011;13626;48.128;11.628;2023-01-04T00:11:56;7.82;;;5.50;;
25780;SDS011;13626;48.128;11.628;2023-01-04T00:14:23;7.63;;;5.40;;
25780;SDS011;13626;48.128;11.628;2023-01-04T00:16:51;6.43;;;4.60;;
25780;SDS011;13626;48.128;11.628;2023-01-04T00:19:18;6.97;;;5.28;;
25780;SDS011;13626;48.128;11.628;2023-01-04T00:21:45;8.38;;;5.28;;
25780;SDS011;13626;48.128;11.628;2023-01-04T00:24:13;7.25;;;5.03;;
25780;SDS011;13626;48.128;11.628;2023-01-04T00:26:40;8.25;;;5.50;;
25780;SDS011;13626;48.128;11.628;2023-01-04T00:29:08;8.45;;;5.45;;
25780;SDS011;13626;48.128;11.628;2023-01-04T00:31:37;7.93;;;5.43;;
25780;SDS011;13626;48.128;11.628;2023-01-04T00:34:05;7.93;;;5.13;;
25780;SDS011;13626;48.128;11.628;2023-01-04T00:36:32;7.35;;;5.32;;
25780;SDS011;13626;48.128;11.628;2023-01-04T00:39:00;7.70;;;5.40;;
25780;SDS011;13626;48.128;11.628;2023-01-04T00:41:36;8.07;;;5.57;;
25780;SDS011;13626;48.128;11.628;2023-01-04T00:44:24;8.48;;;5.70;;
25780;SDS011;13626;48.128;11.628;2023-01-04T00:46:51;11.38;;;6.03;;
25780;SDS011;13626;48.128;11.628;2023-01-04T00:49:19;11.82;;;5.82;;
25780;SDS011;13626;48.128;11.628;2023-01-04T00:51:46;7.18;;;5.45;;
25780;SDS011;13626;48.128;11.628;2023-01-04T00:54:14;7.85;;;5.65;;
25780;SDS011;13626;48.128;11.628;2023-01-04T00:56:41;9.27;;;5.70;;
25780;SDS011;13626;48.128;11.628;2023-01-04T00:59:09;7.97;;;5.75;;
25780;SDS011;13626;48.128;11.628;2023-01-04T01:01:37;7.57;;;5.60;;
25780;SDS011;13626;48.128;11.628;2023-01-04T01:04:05;10.55;;;6.07;;
25780;SDS011;13626;48.128;11.628;2023-01-04T01:06:33;10.60;;;6.22;;
25780;SDS011;13626;48.128;11.628;2023-01-04T01:09:00;10.63;;;5.90;;
25780;SDS011;13626;48.128;11.628;2023-01-04T01:11:27;7.80;;;5.60;;
25780;SDS011;13626;48.128;11.628;2023-01-04T01:13:55;9.35;;;5.88;;
25780;SDS011;13626;48.128;11.628;2023-01-04T01:16:23;8.43;;;5.75;;
25780;SDS011;13626;48.128;11.628;2023-01-04T01:19:10;10.68;;;6.10;;
25780;SDS011;13626;48.128;11.628;2023-01-04T01:21:38;9.45;;;5.57;;
25780;SDS011;13626;48.128;11.628;2023-01-04T01:24:05;8.48;;;5.65;;
25780;SDS011;13626;48.128;11.628;2023-01-04T01:26:32;9.68;;;5.32;;
25780;SDS011;13626;48.128;11.628;2023-01-04T01:29:00;8.02;;;5.35;;
25780;SDS011;13626;48.128;11.628;2023-01-04T01:31:27;8.45;;;5.20;;
25780;SDS011;13626;48.128;11.628;2023-01-04T01:33:55;9.50;;;5.93;;
25780;SDS011;13626;48.128;11.628;2023-01-04T01:36:24;6.70;;;4.97;;
25780;SDS011;13626;48.128;11.628;2023-01-04T01:38:52;8.40;;;5.57;;
25780;SDS011;13626;48.128;11.628;2023-01-04T01:41:23;8.63;;;5.32;;
25780;SDS011;13626;48.128;11.628;2023-01-04T01:43:52;8.05;;;5.78;;
25780;SDS011;13626;48.128;11.628;2023-01-04T01:46:41;9.07;;;5.50;;
25780;SDS011;13626;48.128;11.628;2023-01-04T01:51:40;9.38;;;5.72;;
25780;SDS011;13626;48.128;11.628;2023-01-04T01:54:09;10.38;;;6.25;;
25780;SDS011;13626;48.128;11.628;2023-01-04T01:56:38;8.93;;;5.93;;
25780;SDS011;13626;48.128;11.628;2023-01-04T01:59:06;9.07;;;5.55;;
25780;SDS011;13626;48.128;11.628;2023-01-04T02:01:35;8.35;;;5.40;;
25780;SDS011;13626;48.128;11.628;2023-01-04T02:04:03;10.65;;;5.63;;
25780;SDS011;13626;48.128;11.628;2023-01-04T02:06:38;7.55;;;5.03;;
25780;SDS011;13626;48.128;11.628;2023-01-04T02:09:06;8.63;;;5.68;;
25780;SDS011;13626;48.128;11.628;2023-01-04T02:11:34;8.30;;;5.53;;
25780;SDS011;13626;48.128;11.628;2023-01-04T02:14:01;10.32;;;5.50;;
25780;SDS011;13626;48.128;11.628;2023-01-04T02:33:09;9.60;;;5.50;;
25780;SDS011;13626;48.128;11.628;2023-01-04T02:35:51;10.63;;;5.95;;
25780;SDS011;13626;48.128;11.628;2023-01-04T02:38:44;8.15;;;5.72;;
25780;SDS011;13626;48.128;11.628;2023-01-04T02:44:23;8.60;;;5.32;;
25780;SDS011;13626;48.128;11.628;2023-01-04T02:47:07;7.60;;;5.07;;
25780;SDS011;13626;48.128;11.628;2023-01-04T02:49:36;8.50;;;5.45;;
25780;SDS011;13626;48.128;11.628;2023-01-04T02:52:29;30.02;;;14.82;;
25780;SDS011;13626;48.128;11.628;2023-01-04T02:54:59;11.35;;;7.00;;
25780;SDS011;13626;48.128;11.628;2023-01-04T02:57:31;14.48;;;8.50;;
25780;SDS011;13626;48.128;11.628;2023-01-04T03:00:15;9.93;;;6.47;;
25780;SDS011;13626;48.128;11.628;2023-01-04T03:11:22;9.93;;;6.00;;
25780;SDS011;13626;48.128;11.628;2023-01-04T03:14:10;10.20;;;6.70;;
25780;SDS011;13626;48.128;11.628;2023-01-04T03:16:58;11.20;;;6.70;;
25780;SDS011;13626;48.128;11.628;2023-01-04T03:19:26;11.35;;;6.95;;
25780;SDS011;13626;48.128;11.628;2023-01-04T03:22:12;10.20;;;6.88;;
25780;SDS011;13626;48.128;11.628;2023-01-04T03:25:00;12.20;;;7.05;;
25780;SDS011;13626;48.128;11.628;2023-01-04T03:27:46;10.43;;;6.75;;
25780;SDS011;13626;48.128;11.628;2023-01-04T03:30:52;11.63;;;6.93;;
25780;SDS011;13626;48.128;11.628;2023-01-04T03:33:40;12.48;;;7.25;;
25780;SDS011;13626;48.128;11.628;2023-01-04T03:36:28;11.20;;;7.53;;
25780;SDS011;13626;48.128;11.628;2023-01-04T03:39:15;9.30;;;6.55;;
25780;SDS011;13626;48.128;11.628;2023-01-04T03:42:06;10.73;;;6.93;;
25780;SDS011;13626;48.128;11.628;2023-01-04T03:44:55;10.00;;;6.72;;
25780;SDS011;13626;48.128;11.628;2023-01-04T03:47:54;12.15;;;7.68;;
25780;SDS011;13626;48.128;11.628;2023-01-04T03:50:44;11.55;;;7.22;;
25780;SDS011;13626;48.128;11.628;2023-01-04T03:53:13;10.73;;;6.82;;
25780;SDS011;13626;48.128;11.628;2023-01-04T03:55:41;11.70;;;7.47;;
25780;SDS011;13626;48.128;11.628;2023-01-04T03:58:09;9.88;;;7.05;;
25780;SDS011;13626;48.128;11.628;2023-01-04T04:00:36;10.52;;;7.05;;
25780;SDS011;13626;48.128;11.628;2023-01-04T04:03:04;11.50;;;7.22;;
25780;SDS011;13626;48.128;11.628;2023-01-04T04:05:33;10.93;;;6.82;;
25780;SDS011;13626;48.128;11.628;2023-01-04T04:08:20;12.13;;;7.57;;
25780;SDS011;13626;48.128;11.628;2023-01-04T04:10:57;12.93;;;7.82;;
25780;SDS011;13626;48.128;11.628;2023-01-04T04:13:47;11.90;;;7.60;;
25780;SDS011;13626;48.128;11.628;2023-01-04T04:16:15;12.43;;;7.95;;
25780;SDS011;13626;48.128;11.628;2023-01-04T04:18:42;12.68;;;6.95;;
25780;SDS011;13626;48.128;11.628;2023-01-04T04:21:10;13.18;;;8.45;;
25780;SDS011;13626;48.128;11.628;2023-01-04T04:23:37;12.73;;;7.80;;
25780;SDS011;13626;48.128;11.628;2023-01-04T04:26:04;11.95;;;7.85;;
25780;SDS011;13626;48.128;11.628;2023-01-04T04:28:32;11.40;;;7.78;;
25780;SDS011;13626;48.128;11.628;2023-01-04T04:30:59;10.45;;;7.00;;
25780;SDS011;13626;48.128;11.628;2023-01-04T04:33:26;10.95;;;6.97;;
25780;SDS011;13626;48.128;11.628;2023-01-04T04:35:53;8.35;;;5.68;;
25780;SDS011;13626;48.128;11.628;2023-01-04T04:38:21;9.57;;;6.30;;
25780;SDS011;13626;48.128;11.628;2023-01-04T04:40:48;8.90;;;5.95;;
25780;SDS011;13626;48.128;11.628;2023-01-04T04:43:34;8.95;;;6.05;;
25780;SDS011;13626;48.128;11.628;2023-01-04T04:46:01;7.95;;;5.80;;
25780;SDS011;13626;48.128;11.628;2023-01-04T04:48:29;8.52;;;5.68;;
25780;SDS011;13626;48.128;11.628;2023-01-04T04:50:56;7.70;;;4.90;;
25780;SDS011;13626;48.128;11.628;2023-01-04T04:53:23;7.85;;;5.45;;
25780;SDS011;13626;48.128;11.628;2023-01-04T04:55:51;7.72;;;5.00;;
25780;SDS011;13626;48.128;11.628;2023-01-04T04:58:18;8.00;;;4.82;;
25780;SDS011;13626;48.128;11.628;2023-01-04T05:00:46;7.07;;;4.68;;
25780;SDS011;13626;48.128;11.628;2023-01-04T05:03:13;6.78;;;4.72;;
25780;SDS011;13626;48.128;11.628;2023-01-04T05:05:41;6.53;;;4.57;;
25780;SDS011;13626;48.128;11.628;2023-01-04T05:08:08;6.88;;;4.55;;
25780;SDS011;13626;48.128;11.628;2023-01-04T05:10:36;6.63;;;4.57;;
25780;SDS011;13626;48.128;11.628;2023-01-04T05:13:04;6.43;;;4.35;;
25780;SDS011;13626;48.128;11.628;2023-01-04T05:15:33;6.22;;;4.40;;
25780;SDS011;13626;48.128;11.628;2023-01-04T05:18:00;6.47;;;4.53;;
25780;SDS011;13626;48.128;11.628;2023-01-04T05:20:28;5.47;;;4.15;;
25780;SDS011;13626;48.128;11.628;2023-01-04T05:22:55;6.25;;;4.57;;
25780;SDS011;13626;48.128;11.628;2023-01-04T05:25:22;6.03;;;4.30;;
25780;SDS011;13626;48.128;11.628;2023-01-04T05:27:49;6.13;;;4.45;;
25780;SDS011;13626;48.128;11.628;2023-01-04T05:30:17;5.18;;;3.90;;
25780;SDS011;13626;48.128;11.628;2023-01-04T05:33:03;6.60;;;3.88;;
25780;SDS011;13626;48.128;11.628;2023-01-04T05:35:30;5.65;;;3.85;;
25780;SDS011;13626;48.128;11.628;2023-01-04T05:37:58;5.63;;;3.90;;
25780;SDS011;13626;48.128;11.628;2023-01-04T05:40:25;6.55;;;4.40;;
25780;SDS011;13626;48.128;11.628;2023-01-04T05:42:52;5.43;;;4.30;;
25780;SDS011;13626;48.128;11.628;2023-01-04T05:45:20;5.22;;;4.30;;
25780;SDS011;13626;48.128;11.628;2023-01-04T05:47:48;6.18;;;4.07;;
25780;SDS011;13626;48.128;11.628;2023-01-04T05:50:16;4.78;;;3.58;;
25780;SDS011;13626;48.128;11.628;2023-01-04T05:52:43;6.05;;;4.18;;
25780;SDS011;13626;48.128;11.628;2023-01-04T05:55:11;5.43;;;3.80;;
25780;SDS011;13626;48.128;11.628;2023-01-04T05:57:38;4.88;;;3.92;;
25780;SDS011;13626;48.128;11.628;2023-01-04T06:00:06;5.07;;;3.65;;
25780;SDS011;13626;48.128;11.628;2023-01-04T06:02:33;6.57;;;3.97;;
25780;SDS011;13626;48.128;11.628;2023-01-04T06:05:00;5.38;;;3.97;;
25780;SDS011;13626;48.128;11.628;2023-01-04T06:07:28;5.20;;;3.78;;
25780;SDS011;13626;48.128;11.628;2023-01-04T06:09:55;4.35;;;3.60;;
25780;SDS011;13626;48.128;11.628;2023-01-04T06:12:22;5.70;;;3.67;;
25780;SDS011;13626;48.128;11.628;2023-01-04T06:14:50;5.35;;;4.10;;
25780;SDS011;13626;48.128;11.628;2023-01-04T06:17:17;5.38;;;4.38;;
25780;SDS011;13626;48.128;11.628;2023-01-04T06:19:44;4.22;;;3.20;;
25780;SDS011;13626;48.128;11.628;2023-01-04T06:22:11;4.53;;;3.10;;
25780;SDS011;13626;48.128;11.628;2023-01-04T06:24:39;5.38;;;3.42;;
25780;SDS011;13626;48.128;11.628;2023-01-04T06:27:07;4.28;;;3.13;;
25780;SDS011;13626;48.128;11.628;2023-01-04T06:29:34;4.78;;;3.50;;
25780;SDS011;13626;48.128;11.628;2023-01-04T06:32:01;4.80;;;3.30;;
25780;SDS011;13626;48.128;11.628;2023-01-04T06:34:28;4.43;;;2.95;;
25780;SDS011;13626;48.128;11.628;2023-01-04T06:36:57;4.88;;;3.15;;
25780;SDS011;13626;48.128;11.628;2023-01-04T06:39:24;4.45;;;3.10;;
25780;SDS011;13626;48.128;11.628;2023-01-04T06:41:51;3.70;;;2.95;;
25780;SDS011;13626;48.128;11.628;2023-01-04T06:44:18;4.20;;;2.85;;
25780;SDS011;13626;48.128;11.628;2023-01-04T06:46:45;3.13;;;2.50;;
25780;SDS011;13626;48.128;11.628;2023-01-04T06:49:13;4.13;;;2.70;;
25780;SDS011;13626;48.128;11.628;2023-01-04T06:51:40;3.92;;;3.20;;
25780;SDS011;13626;48.128;11.628;2023-01-04T06:54:08;4.00;;;3.05;;
25780;SDS011;13626;48.128;11.628;2023-01-04T06:56:37;3.10;;;2.58;;
25780;SDS011;13626;48.128;11.628;2023-01-04T06:59:04;3.75;;;2.60;;
25780;SDS011;13626;48.128;11.628;2023-01-04T07:01:31;3.75;;;2.72;;
25780;SDS011;13626;48.128;11.628;2023-01-04T07:03:59;4.75;;;2.63;;
25780;SDS011;13626;48.128;11.628;2023-01-04T07:06:26;2.65;;;2.35;;
25780;SDS011;13626;48.128;11.628;2023-01-04T07:08:54;3.13;;;2.63;;
25780;SDS011;13626;48.128;11.628;2023-01-04T07:11:21;3.10;;;2.50;;
25780;SDS011;13626;48.128;11.628;2023-01-04T07:13:48;3.38;;;2.53;;
25780;SDS011;13626;48.128;11.628;2023-01-04T07:16:18;4.45;;;3.00;;
25780;SDS011;13626;48.128;11.628;2023-01-04T07:18:45;4.45;;;2.78;;
25780;SDS011;13626;48.128;11.628;2023-01-04T07:21:13;4.60;;;2.90;;
25780;SDS011;13626;48.128;11.628;2023-01-04T07:23:41;4.57;;;2.80;;
25780;SDS011;13626;48.128;11.628;2023-01-04T07:26:09;3.95;;;2.83;;
25780;SDS011;13626;48.128;11.628;2023-01-04T07:28:36;2.97;;;2.38;;
25780;SDS011;13626;48.128;11.628;2023-01-04T07:31:22;4.28;;;2.55;;
25780;SDS011;13626;48.128;11.628;2023-01-04T07:33:49;3.47;;;2.70;;
25780;SDS011;13626;48.128;11.628;2023-01-04T07:36:17;2.97;;;2.28;;
25780;SDS011;13626;48.128;11.628;2023-01-04T07:38:44;2.92;;;2.38;;
25780;SDS011;13626;48.128;11.628;2023-01-04T07:41:11;3.20;;;2.17;;
25780;SDS011;13626;48.128;11.628;2023-01-04T07:43:38;2.67;;;2.25;;
25780;SDS011;13626;48.128;11.628;2023-01-04T07:46:06;3.08;;;2.40;;
25780;SDS011;13626;48.128;11.628;2023-01-04T07:48:33;3.80;;;2.47;;
25780;SDS011;13626;48.128;11.628;2023-01-04T07:51:00;4.45;;;2.50;;
25780;SDS011;13626;48.128;11.628;2023-01-04T07:53:28;4.18;;;3.00;;
25780;SDS011;13626;48.128;11.628;2023-01-04T07:55:56;6.32;;;3.35;;
25780;SDS011;13626;48.128;11.628;2023-01-04T07:58:24;5.22;;;3.22;;
25780;SDS011;13626;48.128;11.628;2023-01-04T08:00:51;5.60;;;3.75;;
25780;SDS011;13626;48.128;11.628;2023-01-04T08:03:18;4.40;;;3.03;;
25780;SDS011;13626;48.128;11.628;2023-01-04T08:05:46;4.63;;;3.35;;
25780;SDS011;13626;48.128;11.628;2023-01-04T08:08:13;5.63;;;3.00;;
25780;SDS011;13626;48.128;11.628;2023-01-04T08:10:40;5.50;;;3.42;;
25780;SDS011;13626;48.128;11.628;2023-01-04T08:13:07;4.38;;;2.97;;
25780;SDS011;13626;48.128;11.628;2023-01-04T08:15:34;5.25;;;3.60;;
25780;SDS011;13626;48.128;11.628;2023-01-04T08:18:02;3.58;;;2.80;;
25780;SDS011;13626;48.128;11.628;2023-01-04T08:20:29;2.85;;;2.30;;
25780;SDS011;13626;48.128;11.628;2023-01-04T08:22:56;2.33;;;2.10;;
25780;SDS011;13626;48.128;11.628;2023-01-04T08:25:23;3.22;;;2.38;;
25780;SDS011;13626;48.128;11.628;2023-01-04T08:27:50;3.05;;;2.33;;
25780;SDS011;13626;48.128;11.628;2023-01-04T08:30:18;2.78;;;2.20;;
25780;SDS011;13626;48.128;11.628;2023-01-04T08:32:45;2.80;;;1.90;;
25780;SDS011;13626;48.128;11.628;2023-01-04T08:35:12;4.53;;;2.08;;
25780;SDS011;13626;48.128;11.628;2023-01-04T08:37:39;3.05;;;1.83;;
25780;SDS011;13626;48.128;11.628;2023-01-04T08:40:06;3.28;;;2.13;;
25780;SDS011;13626;48.128;11.628;2023-01-04T08:42:34;3.70;;;2.40;;
25780;SDS011;13626;48.128;11.628;2023-01-04T08:45:01;2.85;;;2.13;;
25780;SDS011;13626;48.128;11.628;2023-01-04T08:47:29;3.10;;;2.22;;
25780;SDS011;13626;48.128;11.628;2023-01-04T08:49:56;3.20;;;2.00;;
25780;SDS011;13626;48.128;11.628;2023-01-04T08:52:25;2.67;;;2.00;;
25780;SDS011;13626;48.128;11.628;2023-01-04T08:54:52;2.20;;;1.85;;
25780;SDS011;13626;48.128;11.628;2023-01-04T08:57:19;1.70;;;1.60;;
25780;SDS011;13626;48.128;11.628;2023-01-04T08:59:47;1.40;;;1.30;;
25780;SDS011;13626;48.128;11.628;2023-01-04T09:02:21;3.55;;;2.97;;
25780;SDS011;13626;48.128;11.628;2023-01-04T09:04:48;1.88;;;1.52;;
25780;SDS011;13626;48.128;11.628;2023-01-04T09:07:16;1.33;;;1.23;;
25780;SDS011;13626;48.128;11.628;2023-01-04T09:09:43;2.05;;;1.65;;
25780;SDS011;13626;48.128;11.628;2023-01-04T09:12:11;1.85;;;1.48;;
25780;SDS011;13626;48.128;11.628;2023-01-04T09:14:38;1.70;;;1.60;;
25780;SDS011;13626;48.128;11.628;2023-01-04T09:17:05;1.55;;;1.30;;
25780;SDS011;13626;48.128;11.628;2023-01-04T09:19:32;2.25;;;1.52;;
25780;SDS011;13626;48.128;11.628;2023-01-04T09:22:00;1.65;;;1.40;;
25780;SDS011;13626;48.128;11.628;2023-01-04T09:24:27;1.50;;;1.40;;
25780;SDS011;13626;48.128;11.628;2023-01-04T09:26:54;1.90;;;1.52;;
25780;SDS011;13626;48.128;11.628;2023-01-04T09:29:21;1.65;;;1.42;;
25780;SDS011;13626;48.128;11.628;2023-01-04T09:31:49;1.58;;;1.33;;
25780;SDS011;13626;48.128;11.628;2023-01-04T09:34:17;1.67;;;1.58;;
25780;SDS011;13626;48.128;11.628;2023-01-04T09:36:44;1.50;;;1.40;;
25780;SDS011;13626;48.128;11.628;2023-01-04T09:39:12;1.73;;;1.45;;
25780;SDS011;13626;48.128;11.628;2023-01-04T09:46:49;1.70;;;1.60;;
25780;SDS011;13626;48.128;11.628;2023-01-04T09:54:42;1.70;;;1.60;;
25780;SDS011;13626;48.128;11.628;2023-01-04T09:57:16;1.65;;;1.55;;
25780;SDS011;13626;48.128;11.628;2023-01-04T09:59:45;1.40;;;1.30;;
25780;SDS011;13626;48.128;11.628;2023-01-04T10:02:14;2.47;;;1.40;;
25780;SDS011;13626;48.128;11.628;2023-01-04T10:04:46;1.75;;;1.38;;
25780;SDS011;13626;48.128;11.628;2023-01-04T10:07:18;1.45;;;1.33;;
25780;SDS011;13626;48.128;11.628;2023-01-04T10:09:47;3.13;;;1.70;;
25780;SDS011;13626;48.128;11.628;2023-01-04T10:12:18;3.47;;;1.67;;
25780;SDS011;13626;48.128;11.628;2023-01-04T10:14:57;3.13;;;1.52;;
25780;SDS011;13626;48.128;11.628;2023-01-04T10:23:31;2.20;;;1.35;;
25780;SDS011;13626;48.128;11.628;2023-01-04T10:34:05;3.05;;;1.20;;
25780;SDS011;13626;48.128;11.628;2023-01-04T10:36:43;1.33;;;1.10;;
25780;SDS011;13626;48.128;11.628;2023-01-04T10:39:15;2.20;;;1.10;;
25780;SDS011;13626;48.128;11.628;2023-01-04T10:41:53;2.70;;;1.25;;
25780;SDS011;13626;48.128;11.628;2023-01-04T10:49:27;1.45;;;1.25;;
25780;SDS011;13626;48.128;11.628;2023-01-04T10:52:04;1.30;;;1.08;;
25780;SDS011;13626;48.128;11.628;2023-01-04T10:54:38;1.63;;;1.00;;
25780;SDS011;13626;48.128;11.628;2023-01-04T10:57:08;1.75;;;1.23;;
25780;SDS011;13626;48.128;11.628;2023-01-04T10:59:39;1.25;;;0.70;;
25780;SDS011;13626;48.128;11.628;2023-01-04T11:07:19;1.45;;;1.00;;
25780;SDS011;13626;48.128;11.628;2023-01-04T11:09:49;2.83;;;0.98;;
25780;SDS011;13626;48.128;11.628;2023-01-04T11:12:18;1.48;;;0.95;;
25780;SDS011;13626;48.128;11.628;2023-01-04T11:14:47;2.97;;;0.98;;
25780;SDS011;13626;48.128;11.628;2023-01-04T11:17:14;1.80;;;1.15;;
25780;SDS011;13626;48.128;11.628;2023-01-04T11:19:42;0.95;;;0.90;;
25780;SDS011;13626;48.128;11.628;2023-01-04T11:22:33;1.27;;;0.95;;
25780;SDS011;13626;48.128;11.628;2023-01-04T11:25:02;1.05;;;0.80;;
25780;SDS011;13626;48.128;11.628;2023-01-04T11:27:50;1.15;;;1.05;;
25780;SDS011;13626;48.128;11.628;2023-01-04T11:30:20;1.83;;;1.00;;
25780;SDS011;13626;48.128;11.628;2023-01-04T11:32:56;0.93;;;0.80;;
25780;SDS011;13626;48.128;11.628;2023-01-04T11:35:36;1.15;;;0.80;;
25780;SDS011;13626;48.128;11.628;2023-01-04T11:38:12;1.63;;;0.95;;
25780;SDS011;13626;48.128;11.628;2023-01-04T11:40:40;3.22;;;1.02;;
25780;SDS011;13626;48.128;11.628;2023-01-04T11:43:27;6.32;;;1.10;;
25780;SDS011;13626;48.128;11.628;2023-01-04T11:45:55;1.38;;;0.60;;
25780;SDS011;13626;48.128;11.628;2023-01-04T11:48:29;1.20;;;0.63;;
25780;SDS011;13626;48.128;11.628;2023-01-04T11:50:57;1.13;;;0.80;;
25780;SDS011;13626;48.128;11.628;2023-01-04T11:53:25;0.77;;;0.70;;
25780;SDS011;13626;48.128;11.628;2023-01-04T11:56:36;2.50;;;1.13;;
25780;SDS011;13626;48.128;11.628;2023-01-04T11:58:59;1.20;;;1.00;;
25780;SDS011;13626;48.128;11.628;2023-01-04T12:01:29;5.40;;;0.95;;
25780;SDS011;13626;48.128;11.628;2023-01-04T12:03:56;1.48;;;1.10;;
25780;SDS011;13626;48.128;11.628;2023-01-04T12:09:01;1.13;;;1.00;;
25780;SDS011;13626;48.128;11.628;2023-01-04T12:11:29;1.60;;;1.05;;
25780;SDS011;13626;48.128;11.628;2023-01-04T12:13:59;3.13;;;0.90;;
25780;SDS011;13626;48.128;11.628;2023-01-04T12:19:07;0.70;;;0.70;;
25780;SDS011;13626;48.128;11.628;2023-01-04T12:21:34;1.67;;;0.90;;
25780;SDS011;13626;48.128;11.628;2023-01-04T12:24:02;0.95;;;0.85;;
25780;SDS011;13626;48.128;11.628;2023-01-04T12:26:31;1.30;;;0.93;;
25780;SDS011;13626;48.128;11.628;2023-01-04T12:31:44;1.17;;;0.60;;
25780;SDS011;13626;48.128;11.628;2023-01-04T12:50:06;2.70;;;0.90;;
25780;SDS011;13626;48.128;11.628;2023-01-04T12:59:04;2.60;;;1.10;;
25780;SDS011;13626;48.128;11.628;2023-01-04T13:01:21;1.95;;;0.60;;
25780;SDS011;13626;48.128;11.628;2023-01-04T13:03:51;0.57;;;0.50;;
25780;SDS011;13626;48.128;11.628;2023-01-04T13:06:28;0.73;;;0.60;;
25780;SDS011;13626;48.128;11.628;2023-01-04T13:08:55;1.52;;;0.60;;
25780;SDS011;13626;48.128;11.628;2023-01-04T13:11:26;5.40;;;1.10;;
25780;SDS011;13626;48.128;11.628;2023-01-04T13:14:04;0.57;;;0.50;;
25780;SDS011;13626;48.128;11.628;2023-01-04T13:19:09;1.60;;;0.70;;
25780;SDS011;13626;48.128;11.628;2023-01-04T13:21:39;1.23;;;1.13;;
25780;SDS011;13626;48.128;11.628;2023-01-04T13:26:43;2.10;;;0.55;;
25780;SDS011;13626;48.128;11.628;2023-01-04T13:29:15;0.88;;;0.50;;
25780;SDS011;13626;48.128;11.628;2023-01-04T13:32:26;0.60;;;0.50;;
25780;SDS011;13626;48.128;11.628;2023-01-04T13:34:34;1.02;;;0.63;;
25780;SDS011;13626;48.128;11.628;2023-01-04T13:39:51;1.77;;;0.55;;
25780;SDS011;13626;48.128;11.628;2023-01-04T13:42:31;0.68;;;0.40;;
25780;SDS011;13626;48.128;11.628;2023-01-04T13:45:03;0.57;;;0.50;;
25780;SDS011;13626;48.128;11.628;2023-01-04T13:47:45;0.40;;;0.40;;
25780;SDS011;13626;48.128;11.628;2023-01-04T13:52:52;1.30;;;0.40;;
25780;SDS011;13626;48.128;11.628;2023-01-04T13:55:34;0.77;;;0.50;;
25780;SDS011;13626;48.128;11.628;2023-01-04T13:58:02;0.98;;;0.35;;
25780;SDS011;13626;48.128;11.628;2023-01-04T14:00:34;0.73;;;0.43;;
25780;SDS011;13626;48.128;11.628;2023-01-04T14:05:54;1.90;;;0.60;;
25780;SDS011;13626;48.128;11.628;2023-01-04T14:08:32;0.55;;;0.45;;
25780;SDS011;13626;48.128;11.628;2023-01-04T14:11:00;1.77;;;0.60;;
25780;SDS011;13626;48.128;11.628;2023-01-04T14:13:28;0.55;;;0.50;;
25780;SDS011;13626;48.128;11.628;2023-01-04T14:16:29;0.35;;;0.35;;
25780;SDS011;13626;48.128;11.628;2023-01-04T14:18:49;1.20;;;0.90;;
25780;SDS011;13626;48.128;11.628;2023-01-04T14:21:16;1.10;;;0.40;;
25780;SDS011;13626;48.128;11.628;2023-01-04T14:23:44;1.60;;;0.50;;
25780;SDS011;13626;48.128;11.628;2023-01-04T14:26:30;1.02;;;0.80;;
25780;SDS011;13626;48.128;11.628;2023-01-04T14:28:57;1.27;;;0.40;;
25780;SDS011;13626;48.128;11.628;2023-01-04T14:31:26;1.45;;;0.30;;
25780;SDS011;13626;48.128;11.628;2023-01-04T14:33:54;1.23;;;0.57;;
25780;SDS011;13626;48.128;11.628;2023-01-04T14:36:28;0.45;;;0.45;;
25780;SDS011;13626;48.128;11.628;2023-01-04T14:46:27;2.15;;;0.60;;
25780;SDS011;13626;48.128;11.628;2023-01-04T14:48:55;0.55;;;0.43;;
25780;SDS011;13626;48.128;11.628;2023-01-04T14:51:25;0.63;;;0.63;;
25780;SDS011;13626;48.128;11.628;2023-01-04T14:53:54;2.35;;;0.75;;
25780;SDS011;13626;48.128;11.628;2023-01-04T14:56:22;0.38;;;0.35;;
25780;SDS011;13626;48.128;11.628;2023-01-04T14:58:49;4.10;;;1.58;;
25780;SDS011;13626;48.128;11.628;2023-01-04T15:01:16;1.67;;;0.50;;
25780;SDS011;13626;48.128;11.628;2023-01-04T15:03:43;1.30;;;0.77;;
25780;SDS011;13626;48.128;11.628;2023-01-04T15:06:10;0.75;;;0.60;;
25780;SDS011;13626;48.128;11.628;2023-01-04T15:08:38;0.95;;;0.45;;
25780;SDS011;13626;48.128;11.628;2023-01-04T15:11:05;1.55;;;0.70;;
25780;SDS011;13626;48.128;11.628;2023-01-04T15:13:32;1.77;;;0.52;;
25780;SDS011;13626;48.128;11.628;2023-01-04T15:16:05;2.38;;;0.52;;
25780;SDS011;13626;48.128;11.628;2023-01-04T15:18:33;11.60;;;0.82;;
25780;SDS011;13626;48.128;11.628;2023-01-04T15:21:01;2.13;;;0.40;;
25780;SDS011;13626;48.128;11.628;2023-01-04T15:23:28;0.57;;;0.30;;
25780;SDS011;13626;48.128;11.628;2023-01-04T15:25:55;0.60;;;0.40;;
25780;SDS011;13626;48.128;11.628;2023-01-04T15:28:22;1.08;;;0.60;;
25780;SDS011;13626;48.128;11.628;2023-01-04T15:30:51;0.80;;;0.55;;
25780;SDS011;13626;48.128;11.628;2023-01-04T15:33:18;4.03;;;0.90;;
25780;SDS011;13626;48.128;11.628;2023-01-04T15:35:46;3.03;;;0.65;;
25780;SDS011;13626;48.128;11.628;2023-01-04T15:38:13;0.80;;;0.65;;
25780;SDS011;13626;48.128;11.628;2023-01-04T15:40:43;0.40;;;0.32;;
25780;SDS011;13626;48.128;11.628;2023-01-04T15:43:11;0.43;;;0.40;;
25780;SDS011;13626;48.128;11.628;2023-01-04T15:45:38;0.88;;;0.77;;
25780;SDS011;13626;48.128;11.628;2023-01-04T15:48:06;1.08;;;0.40;;
25780;SDS011;13626;48.128;11.628;2023-01-04T15:50:34;0.68;;;0.50;;
25780;SDS011;13626;48.128;11.628;2023-01-04T15:53:02;0.63;;;0.38;;
25780;SDS011;13626;48.128;11.628;2023-01-04T15:55:30;1.02;;;0.50;;
25780;SDS011;13626;48.128;11.628;2023-01-04T15:58:02;0.50;;;0.30;;
25780;SDS011;13626;48.128;11.628;2023-01-04T16:00:29;0.52;;;0.50;;
25780;SDS011;13626;48.128;11.628;2023-01-04T16:02:58;0.30;;;0.30;;
25780;SDS011;13626;48.128;11.628;2023-01-04T16:05:25;0.43;;;0.40;;
25780;SDS011;13626;48.128;11.628;2023-01-04T16:07:52;0.52;;;0.40;;
25780;SDS011;13626;48.128;11.628;2023-01-04T16:10:19;1.38;;;0.63;;
25780;SDS011;13626;48.128;11.628;2023-01-04T16:12:47;0.77;;;0.50;;
25780;SDS011;13626;48.128;11.628;2023-01-04T16:15:22;1.17;;;0.70;;
25780;SDS011;13626;48.128;11.628;2023-01-04T16:17:49;0.52;;;0.50;;
25780;SDS011;13626;48.128;11.628;2023-01-04T16:20:17;1.98;;;0.50;;
25780;SDS011;13626;48.128;11.628;2023-01-04T16:22:44;0.40;;;0.40;;
25780;SDS011;13626;48.128;11.628;2023-01-04T16:25:12;1.45;;;0.50;;
25780;SDS011;13626;48.128;11.628;2023-01-04T16:27:39;0.70;;;0.50;;
25780;SDS011;13626;48.128;11.628;2023-01-04T16:30:08;0.60;;;0.35;;
25780;SDS011;13626;48.128;11.628;2023-01-04T16:32:39;0.52;;;0.40;;
25780;SDS011;13626;48.128;11.628;2023-01-04T16:35:06;0.50;;;0.50;;
25780;SDS011;13626;48.128;11.628;2023-01-04T16:37:34;0.43;;;0.30;;
25780;SDS011;13626;48.128;11.628;2023-01-04T16:40:01;0.75;;;0.40;;
25780;SDS011;13626;48.128;11.628;2023-01-04T16:42:34;0.60;;;0.38;;
25780;SDS011;13626;48.128;11.628;2023-01-04T16:45:01;0.50;;;0.38;;
25780;SDS011;13626;48.128;11.628;2023-01-04T16:47:32;0.30;;;0.30;;
25780;SDS011;13626;48.128;11.628;2023-01-04T16:50:03;2.70;;;0.57;;